createdAt,value
2023-01-19T00:00:30.840Z,5.15
2023-01-19T00:02:57.379Z,5.70
2023-01-19T00:05:23.763Z,5.72
2023-01-19T00:07:50.224Z,5.80
2023-01-19T00:10:17.056Z,5.15
2023-01-19T00:12:43.439Z,6.05
2023-01-19T00:15:10.336Z,5.63
2023-01-19T00:17:36.831Z,5.72
2023-01-19T00:20:04.027Z,5.45
2023-01-19T00:22:30.394Z,5.93
2023-01-19T00:24:56.842Z,6.22
2023-01-19T00:27:23.316Z,5.65
2023-01-19T00:29:49.634Z,4.88
2023-01-19T00:32:16.169Z,4.95
2023-01-19T00:34:42.586Z,4.95
2023-01-19T00:37:09.915Z,5.07
2023-01-19T00:39:36.297Z,5.38
2023-01-19T00:42:03.530Z,5.35
2023-01-19T00:44:29.880Z,6.68
2023-01-19T00:46:56.305Z,5.53
2023-01-19T00:49:22.643Z,5.65
2023-01-19T00:51:48.959Z,5.65
2023-01-19T00:54:15.506Z,6.18
2023-01-19T00:56:41.870Z,6.05
2023-01-19T00:59:08.239Z,5.90
2023-01-19T01:01:44.995Z,6.10
2023-01-19T01:04:11.976Z,7.13
2023-01-19T01:06:38.351Z,6.32
2023-01-19T01:09:04.822Z,6.78
2023-01-19T01:11:31.187Z,6.88
2023-01-19T01:13:57.553Z,6.47
2023-01-19T01:16:25.348Z,6.20
2023-01-19T01:18:51.878Z,6.78
2023-01-19T01:21:18.235Z,6.57
2023-01-19T01:23:44.567Z,6.85
2023-01-19T01:26:10.912Z,7.20
2023-01-19T01:28:37.459Z,6.82
2023-01-19T01:31:04.008Z,6.72
2023-01-19T01:33:41.045Z,7.43
2023-01-19T01:36:09.059Z,7.35
2023-01-19T01:38:35.443Z,6.70
2023-01-19T01:41:01.763Z,6.55
2023-01-19T01:43:51.525Z,6.50
2023-01-19T01:46:18.992Z,6.40
2023-01-19T01:49:04.197Z,7.95
2023-01-19T01:51:37.350Z,7.35
2023-01-19T01:54:16.651Z,6.85
2023-01-19T01:56:46.600Z,6.72
2023-01-19T01:59:18.249Z,6.32
2023-01-19T02:01:44.792Z,7.00
2023-01-19T02:04:11.246Z,5.03
2023-01-19T02:06:37.723Z,6.45
2023-01-19T02:09:08.653Z,6.18
2023-01-19T02:11:36.026Z,6.25
2023-01-19T02:14:05.572Z,6.18
2023-01-19T02:16:32.365Z,6.72
2023-01-19T02:18:58.691Z,6.50
2023-01-19T02:21:52.352Z,6.75
2023-01-19T02:24:19.003Z,6.28
2023-01-19T02:26:47.597Z,6.07
2023-01-19T02:29:20.102Z,6.28
2023-01-19T02:31:46.897Z,6.07
2023-01-19T02:34:16.762Z,6.40
2023-01-19T02:36:51.892Z,5.53
2023-01-19T02:39:22.579Z,6.05
2023-01-19T02:41:53.524Z,6.55
2023-01-19T02:44:22.477Z,6.10
2023-01-19T02:46:48.888Z,6.82
2023-01-19T02:49:15.266Z,5.22
2023-01-19T02:51:43.921Z,6.18
2023-01-19T02:54:41.571Z,6.68
2023-01-19T02:57:43.344Z,6.00
2023-01-19T03:00:35.378Z,6.63
2023-01-19T03:03:16.210Z,5.63
2023-01-19T03:05:54.354Z,5.45
2023-01-19T03:08:47.902Z,5.65
2023-01-19T03:11:14.638Z,5.57
2023-01-19T03:14:03.683Z,5.28
2023-01-19T03:16:38.313Z,6.13
2023-01-19T03:19:15.243Z,4.78
2023-01-19T03:21:47.333Z,6.72
2023-01-19T03:24:16.124Z,6.00
2023-01-19T03:26:51.597Z,6.32
2023-01-19T03:29:21.850Z,6.20
2023-01-19T03:31:53.043Z,5.97
2023-01-19T03:34:20.859Z,6.13
2023-01-19T03:36:53.503Z,6.30
2023-01-19T03:39:23.640Z,6.35
2023-01-19T03:41:54.876Z,6.90
2023-01-19T03:44:22.289Z,5.88
2023-01-19T03:46:48.628Z,6.90
2023-01-19T03:49:15.145Z,5.88
2023-01-19T03:51:41.684Z,5.78
2023-01-19T03:54:10.663Z,6.45
2023-01-19T03:56:37.322Z,5.55
2023-01-19T03:59:04.010Z,6.30
2023-01-19T04:01:30.405Z,6.53
2023-01-19T04:03:56.968Z,6.88
2023-01-19T04:06:23.740Z,7.15
2023-01-19T04:08:51.128Z,6.53
2023-01-19T04:11:17.991Z,6.75
2023-01-19T04:13:44.613Z,7.30
2023-01-19T04:16:11.684Z,7.45
2023-01-19T04:18:38.246Z,6.80
2023-01-19T04:21:07.157Z,6.88
2023-01-19T04:23:33.778Z,6.78
2023-01-19T04:26:02.163Z,6.57
2023-01-19T04:28:28.715Z,5.97
2023-01-19T04:30:55.164Z,6.63
2023-01-19T04:33:21.801Z,7.45
2023-01-19T04:35:49.639Z,7.03
2023-01-19T04:38:16.591Z,6.65
2023-01-19T04:40:42.861Z,7.07
2023-01-19T04:43:09.273Z,6.30
2023-01-19T04:45:35.549Z,6.53
2023-01-19T04:48:01.987Z,6.97
2023-01-19T04:50:28.373Z,6.15
2023-01-19T04:52:54.736Z,7.22
2023-01-19T04:55:21.075Z,7.13
2023-01-19T04:57:47.364Z,6.60
2023-01-19T05:00:14.164Z,6.93
2023-01-19T05:02:40.696Z,6.90
2023-01-19T05:05:07.251Z,7.68
2023-01-19T05:07:33.592Z,6.80
2023-01-19T05:09:59.952Z,7.28
2023-01-19T05:12:26.286Z,7.18
2023-01-19T05:14:52.575Z,6.88
2023-01-19T05:17:18.888Z,7.05
2023-01-19T05:19:45.162Z,7.00
2023-01-19T05:22:11.477Z,7.32
2023-01-19T05:24:37.812Z,7.55
2023-01-19T05:27:04.111Z,6.93
2023-01-19T05:29:30.809Z,9.38
2023-01-19T05:31:57.464Z,8.95
2023-01-19T05:34:24.123Z,8.02
2023-01-19T05:36:50.474Z,7.32
2023-01-19T05:39:17.013Z,7.55
2023-01-19T05:41:43.278Z,7.38
2023-01-19T05:44:09.887Z,7.28
2023-01-19T05:46:36.293Z,7.03
2023-01-19T05:49:02.642Z,7.72
2023-01-19T05:51:28.888Z,7.07
2023-01-19T05:53:55.180Z,7.13
2023-01-19T05:56:21.475Z,7.10
2023-01-19T05:58:47.845Z,7.03
2023-01-19T06:01:14.171Z,7.97
2023-01-19T06:03:40.498Z,6.35
2023-01-19T06:06:07.067Z,7.50
2023-01-19T06:08:33.529Z,8.45
2023-01-19T06:10:59.841Z,6.75
2023-01-19T06:13:26.563Z,6.60
2023-01-19T06:16:00.264Z,7.68
2023-01-19T06:18:27.628Z,7.70
2023-01-19T06:20:54.034Z,6.65
2023-01-19T06:23:20.338Z,7.05
2023-01-19T06:25:48.913Z,7.07
2023-01-19T06:28:15.196Z,7.70
2023-01-19T06:30:41.504Z,6.82
2023-01-19T06:33:08.011Z,7.25
2023-01-19T06:35:34.331Z,7.55
2023-01-19T06:38:00.608Z,7.32
2023-01-19T06:40:27.031Z,7.63
2023-01-19T06:42:53.304Z,6.35
2023-01-19T06:45:19.617Z,6.68
2023-01-19T06:47:47.801Z,6.30
2023-01-19T06:50:14.193Z,7.63
2023-01-19T06:52:40.446Z,6.20
2023-01-19T06:55:07.051Z,6.68
2023-01-19T06:57:33.355Z,6.88
2023-01-19T06:59:59.648Z,6.72
2023-01-19T07:02:28.556Z,8.27
2023-01-19T07:04:56.336Z,6.95
2023-01-19T07:07:22.662Z,7.55
2023-01-19T07:09:49.101Z,7.25
2023-01-19T07:12:19.956Z,6.68
2023-01-19T07:14:46.275Z,6.95
2023-01-19T07:17:12.634Z,7.70
2023-01-19T07:19:38.997Z,6.03
2023-01-19T07:22:05.273Z,7.25
2023-01-19T07:24:31.525Z,7.28
2023-01-19T07:26:57.830Z,8.00
2023-01-19T07:29:24.106Z,7.22
2023-01-19T07:31:50.522Z,7.22
2023-01-19T07:34:16.937Z,6.55
2023-01-19T07:36:43.232Z,7.95
2023-01-19T07:39:09.505Z,7.55
2023-01-19T07:41:35.788Z,7.95
2023-01-19T07:44:02.086Z,6.25
2023-01-19T07:46:28.404Z,6.60
2023-01-19T07:48:54.718Z,6.97
2023-01-19T07:51:21.008Z,6.95
2023-01-19T07:53:49.772Z,5.88
2023-01-19T07:56:16.189Z,6.55
2023-01-19T07:58:42.774Z,6.93
2023-01-19T08:01:11.874Z,6.72
2023-01-19T08:03:38.641Z,5.75
2023-01-19T08:06:05.835Z,6.00
2023-01-19T08:08:33.579Z,6.00
2023-01-19T08:11:00.263Z,6.18
2023-01-19T08:13:27.138Z,5.80
2023-01-19T08:15:53.913Z,5.13
2023-01-19T08:18:21.065Z,5.55
2023-01-19T08:20:47.460Z,5.78
2023-01-19T08:23:13.738Z,6.03
2023-01-19T08:25:43.884Z,5.93
2023-01-19T08:28:11.360Z,7.18
2023-01-19T08:30:38.628Z,5.72
2023-01-19T08:33:04.998Z,5.80
2023-01-19T08:35:32.355Z,6.40
2023-01-19T08:37:59.442Z,6.10
2023-01-19T08:40:25.719Z,5.55
2023-01-19T08:42:52.032Z,7.18
2023-01-19T08:45:18.303Z,6.28
2023-01-19T08:47:44.632Z,6.00
2023-01-19T08:50:11.292Z,5.60
2023-01-19T08:52:37.574Z,5.90
2023-01-19T08:55:04.276Z,5.68
2023-01-19T08:57:30.661Z,4.88
2023-01-19T08:59:56.928Z,4.97
2023-01-19T09:02:23.271Z,5.35
2023-01-19T09:04:49.583Z,5.13
2023-01-19T09:07:15.920Z,5.63
2023-01-19T09:09:42.227Z,5.50
2023-01-19T09:12:08.594Z,6.00
2023-01-19T09:14:34.864Z,4.82
2023-01-19T09:17:01.137Z,6.07
2023-01-19T09:19:27.445Z,5.85
2023-01-19T09:21:54.385Z,4.93
2023-01-19T09:24:20.842Z,5.03
2023-01-19T09:26:47.149Z,4.45
2023-01-19T09:29:13.432Z,5.68
2023-01-19T09:31:39.940Z,4.85
2023-01-19T09:34:06.776Z,5.20
2023-01-19T09:36:33.121Z,5.18
2023-01-19T09:38:59.440Z,4.72
2023-01-19T09:41:26.251Z,4.80
2023-01-19T09:43:59.074Z,5.13
2023-01-19T09:46:34.965Z,5.00
2023-01-19T09:49:05.243Z,4.13
2023-01-19T09:51:36.573Z,4.82
2023-01-19T09:54:29.711Z,4.93
2023-01-19T09:56:56.089Z,4.32
2023-01-19T09:59:26.650Z,4.07
2023-01-19T10:01:58.778Z,3.70
2023-01-19T10:04:36.552Z,3.75
2023-01-19T10:07:15.989Z,3.58
2023-01-19T10:10:17.679Z,3.92
2023-01-19T10:12:51.218Z,4.13
2023-01-19T10:15:42.252Z,3.63
2023-01-19T10:18:19.770Z,3.60
2023-01-19T10:20:55.163Z,3.42
2023-01-19T10:23:38.342Z,4.47
2023-01-19T10:26:10.029Z,3.90
2023-01-19T10:28:38.499Z,3.33
2023-01-19T10:31:05.980Z,3.25
2023-01-19T10:33:33.711Z,3.45
2023-01-19T10:36:04.236Z,4.07
2023-01-19T10:38:31.870Z,4.53
2023-01-19T10:41:19.153Z,3.92
2023-01-19T10:43:47.411Z,4.35
2023-01-19T10:46:31.853Z,3.88
2023-01-19T10:48:58.250Z,3.53
2023-01-19T10:51:24.648Z,4.22
2023-01-19T10:54:00.977Z,4.32
2023-01-19T10:56:31.666Z,3.08
2023-01-19T10:58:59.773Z,3.60
2023-01-19T11:01:28.226Z,2.92
2023-01-19T11:03:55.181Z,2.88
2023-01-19T11:06:26.240Z,3.10
2023-01-19T11:08:54.150Z,3.00
2023-01-19T11:11:23.138Z,3.15
2023-01-19T11:14:10.953Z,3.25
2023-01-19T11:16:37.771Z,2.92
2023-01-19T11:19:04.411Z,2.90
2023-01-19T11:21:32.452Z,2.85
2023-01-19T11:24:04.796Z,3.25
2023-01-19T11:26:40.912Z,2.40
2023-01-19T11:29:16.564Z,3.03
2023-01-19T11:31:43.770Z,2.80
2023-01-19T11:34:33.034Z,2.63
2023-01-19T11:37:05.186Z,3.60
2023-01-19T11:39:44.727Z,3.35
2023-01-19T11:42:13.211Z,3.10
2023-01-19T11:44:51.420Z,2.97
2023-01-19T11:47:45.880Z,2.78
2023-01-19T11:50:15.613Z,2.65
2023-01-19T11:52:51.997Z,2.97
2023-01-19T11:55:32.756Z,2.97
2023-01-19T11:57:59.722Z,2.45
2023-01-19T12:00:45.107Z,2.85
2023-01-19T12:03:21.063Z,2.97
2023-01-19T12:05:51.479Z,2.97
2023-01-19T12:08:27.946Z,2.65
2023-01-19T12:10:57.255Z,2.78
2023-01-19T12:13:26.212Z,2.47
2023-01-19T12:16:00.798Z,3.55
2023-01-19T12:18:33.742Z,2.35
2023-01-19T12:21:01.901Z,2.63
2023-01-19T12:23:29.947Z,3.15
2023-01-19T12:26:22.351Z,2.88
2023-01-19T12:28:51.141Z,3.00
2023-01-19T12:31:19.639Z,2.85
2023-01-19T12:33:46.453Z,3.00
2023-01-19T12:36:30.884Z,3.33
2023-01-19T12:39:02.341Z,1.92
2023-01-19T12:41:36.383Z,2.70
2023-01-19T12:44:11.811Z,2.40
2023-01-19T12:46:47.489Z,2.13
2023-01-19T12:49:27.714Z,2.50
2023-01-19T12:52:16.205Z,2.55
2023-01-19T12:55:14.418Z,1.88
2023-01-19T13:00:22.349Z,2.40
2023-01-19T13:02:57.919Z,2.22
2023-01-19T13:05:32.495Z,2.30
2023-01-19T13:08:02.312Z,2.60
2023-01-19T13:11:02.598Z,3.05
2023-01-19T13:13:38.905Z,2.42
2023-01-19T13:16:20.538Z,2.60
2023-01-19T13:18:52.433Z,3.05
2023-01-19T13:21:44.301Z,2.60
2023-01-19T13:26:49.614Z,2.08
2023-01-19T13:29:37.160Z,2.95
2023-01-19T13:32:10.809Z,3.17
2023-01-19T13:34:42.547Z,2.20
2023-01-19T13:37:18.729Z,2.92
2023-01-19T13:39:46.412Z,2.85
2023-01-19T13:42:20.888Z,2.75
2023-01-19T13:44:49.344Z,2.65
2023-01-19T13:47:21.355Z,2.67
2023-01-19T13:49:50.565Z,3.30
2023-01-19T13:52:22.739Z,3.40
2023-01-19T13:54:56.754Z,2.80
2023-01-19T13:57:40.548Z,2.88
2023-01-19T14:00:09.904Z,2.70
2023-01-19T14:02:36.389Z,2.60
2023-01-19T14:05:28.227Z,3.65
2023-01-19T14:08:03.589Z,3.30
2023-01-19T14:10:30.231Z,3.45
2023-01-19T14:13:00.124Z,3.00
2023-01-19T14:15:27.870Z,3.20
2023-01-19T14:18:18.869Z,3.85
2023-01-19T14:20:55.775Z,3.20
2023-01-19T14:23:40.812Z,2.95
2023-01-19T14:26:41.835Z,3.33
2023-01-19T14:29:31.750Z,3.33
2023-01-19T14:32:23.070Z,3.05
2023-01-19T14:34:58.364Z,2.88
2023-01-19T14:37:28.919Z,2.95
2023-01-19T14:40:00.882Z,3.15
2023-01-19T14:42:35.696Z,3.22
2023-01-19T14:45:07.814Z,3.17
2023-01-19T14:47:40.561Z,3.03
2023-01-19T14:50:20.237Z,3.13
2023-01-19T14:52:55.050Z,2.55
2023-01-19T14:55:52.394Z,3.33
2023-01-19T14:58:21.009Z,3.33
2023-01-19T15:00:48.233Z,2.95
2023-01-19T15:03:15.355Z,3.15
2023-01-19T15:05:46.602Z,4.05
2023-01-19T15:08:17.374Z,2.90
2023-01-19T15:10:44.565Z,2.88
2023-01-19T15:13:18.071Z,3.72
2023-01-19T15:15:44.340Z,3.10
2023-01-19T15:18:15.492Z,3.17
2023-01-19T15:20:41.833Z,3.42
2023-01-19T15:23:10.490Z,3.22
2023-01-19T15:25:37.413Z,3.17
2023-01-19T15:28:13.799Z,3.72
2023-01-19T15:30:40.233Z,3.22
2023-01-19T15:33:06.728Z,2.90
2023-01-19T15:35:33.147Z,4.00
2023-01-19T15:37:59.914Z,3.03
2023-01-19T15:40:26.300Z,3.28
2023-01-19T15:42:52.636Z,2.95
2023-01-19T15:45:38.340Z,2.72
2023-01-19T15:48:09.124Z,2.97
2023-01-19T15:50:40.784Z,3.25
2023-01-19T15:53:10.706Z,3.15
2023-01-19T15:55:36.999Z,3.53
2023-01-19T15:58:03.293Z,2.70
2023-01-19T16:00:31.518Z,2.65
2023-01-19T16:02:58.573Z,2.95
2023-01-19T16:05:37.474Z,3.55
2023-01-19T16:08:08.579Z,3.65
2023-01-19T16:10:35.242Z,4.25
2023-01-19T16:13:01.653Z,3.40
2023-01-19T16:15:27.931Z,3.75
2023-01-19T16:17:54.204Z,3.13
2023-01-19T16:20:20.593Z,3.25
2023-01-19T16:22:46.904Z,3.63
2023-01-19T16:25:13.235Z,3.25
2023-01-19T16:27:39.517Z,3.15
2023-01-19T16:30:06.503Z,2.90
2023-01-19T16:32:33.438Z,3.30
2023-01-19T16:34:59.935Z,3.90
2023-01-19T16:37:27.997Z,3.47
2023-01-19T16:39:54.457Z,3.47
2023-01-19T16:42:20.828Z,3.90
2023-01-19T16:44:47.159Z,3.40
2023-01-19T16:47:13.444Z,3.00
2023-01-19T16:49:40.093Z,2.90
2023-01-19T16:52:06.384Z,2.78
2023-01-19T16:54:32.679Z,3.40
2023-01-19T16:56:59.403Z,3.45
2023-01-19T16:59:26.077Z,3.22
2023-01-19T17:01:53.595Z,3.65
2023-01-19T17:04:22.277Z,3.13
2023-01-19T17:06:48.676Z,3.95
2023-01-19T17:09:15.374Z,3.97
2023-01-19T17:11:42.333Z,5.50
2023-01-19T17:14:12.739Z,5.25
2023-01-19T17:16:39.574Z,4.60
2023-01-19T17:19:06.931Z,4.75
2023-01-19T17:21:34.024Z,4.90
2023-01-19T17:24:00.902Z,5.60
2023-01-19T17:26:28.935Z,6.05
2023-01-19T17:29:02.069Z,5.68
2023-01-19T17:31:29.240Z,6.18
2023-01-19T17:33:56.001Z,6.57
2023-01-19T17:36:23.837Z,5.82
2023-01-19T17:43:44.500Z,4.60
2023-01-19T17:46:11.750Z,5.30
2023-01-19T17:48:38.744Z,10.27
2023-01-19T17:51:07.056Z,9.65
2023-01-19T17:53:34.053Z,7.32
2023-01-19T17:56:08.818Z,8.15
2023-01-19T17:58:35.547Z,7.53
2023-01-19T18:01:13.189Z,8.00
2023-01-19T18:03:40.446Z,7.38
2023-01-19T18:06:07.408Z,6.60
2023-01-19T18:08:34.550Z,6.88
2023-01-19T18:11:02.056Z,7.47
2023-01-19T18:13:29.032Z,7.07
2023-01-19T18:16:08.191Z,7.05
2023-01-19T18:18:35.530Z,7.20
2023-01-19T18:21:04.820Z,7.70
2023-01-19T18:23:31.183Z,7.10
2023-01-19T18:25:59.106Z,7.72
2023-01-19T18:28:25.540Z,6.43
2023-01-19T18:30:52.053Z,7.45
2023-01-19T18:33:18.396Z,6.18
2023-01-19T18:35:45.421Z,6.13
2023-01-19T18:38:11.854Z,5.95
2023-01-19T18:40:38.169Z,6.72
2023-01-19T18:43:04.486Z,7.13
2023-01-19T18:45:30.817Z,7.65
2023-01-19T18:47:57.137Z,7.10
2023-01-19T18:50:23.537Z,6.50
2023-01-19T18:52:49.921Z,7.72
2023-01-19T18:55:16.409Z,6.88
2023-01-19T18:57:42.695Z,5.78
2023-01-19T19:00:09.792Z,5.22
2023-01-19T19:02:36.085Z,7.22
2023-01-19T19:05:02.412Z,7.28
2023-01-19T19:07:29.067Z,6.35
2023-01-19T19:09:55.520Z,7.10
2023-01-19T19:12:21.857Z,6.82
2023-01-19T19:14:48.215Z,7.22
2023-01-19T19:17:14.588Z,9.68
2023-01-19T19:19:40.909Z,8.23
2023-01-19T19:22:07.212Z,7.85
2023-01-19T19:24:33.501Z,5.40
2023-01-19T19:26:59.820Z,7.07
2023-01-19T19:29:26.119Z,7.88
2023-01-19T19:31:52.534Z,5.97
2023-01-19T19:34:18.852Z,5.57
2023-01-19T19:36:45.994Z,4.47
2023-01-19T19:39:12.405Z,4.90
2023-01-19T19:41:38.713Z,7.38
2023-01-19T19:44:05.265Z,7.63
2023-01-19T19:46:31.616Z,5.88
2023-01-19T19:48:58.158Z,5.95
2023-01-19T19:51:27.140Z,5.15
2023-01-19T19:53:59.828Z,4.78
2023-01-19T19:56:28.915Z,6.15
2023-01-19T19:58:56.934Z,6.28
2023-01-19T20:01:29.971Z,5.82
2023-01-19T20:03:58.776Z,5.25
2023-01-19T20:06:26.761Z,8.93
2023-01-19T20:08:55.828Z,5.78
2023-01-19T20:11:25.791Z,6.10
2023-01-19T20:13:52.720Z,7.57
2023-01-19T20:16:21.689Z,6.25
2023-01-19T20:18:50.079Z,6.18
2023-01-19T20:21:28.263Z,6.07
2023-01-19T20:23:56.293Z,5.55
2023-01-19T20:26:26.815Z,7.07
2023-01-19T20:28:54.139Z,6.40
2023-01-19T20:31:42.300Z,6.13
2023-01-19T20:34:10.794Z,5.25
2023-01-19T20:36:37.470Z,6.05
2023-01-19T20:39:05.937Z,6.60
2023-01-19T20:41:32.190Z,6.28
2023-01-19T20:43:58.480Z,6.03
2023-01-19T20:46:24.805Z,6.07
2023-01-19T20:48:51.166Z,6.13
2023-01-19T20:51:17.751Z,6.18
2023-01-19T20:53:44.234Z,7.07
2023-01-19T20:56:12.459Z,6.95
2023-01-19T20:58:40.217Z,6.10
2023-01-19T21:01:15.927Z,6.50
2023-01-19T21:03:42.510Z,6.80
2023-01-19T21:06:09.165Z,7.53
2023-01-19T21:08:35.944Z,6.05
2023-01-19T21:11:03.226Z,5.72
2023-01-19T21:13:29.509Z,6.45
2023-01-19T21:15:56.018Z,5.80
2023-01-19T21:18:22.295Z,5.70
2023-01-19T21:20:49.040Z,5.95
2023-01-19T21:23:15.757Z,6.60
2023-01-19T21:26:08.333Z,5.95
2023-01-19T21:28:34.622Z,5.50
2023-01-19T21:31:12.539Z,5.30
2023-01-19T21:33:42.604Z,5.47
2023-01-19T21:36:10.639Z,5.70
2023-01-19T21:38:37.976Z,6.15
2023-01-19T21:41:09.423Z,6.35
2023-01-19T21:43:37.506Z,5.97
2023-01-19T21:46:20.456Z,6.22
2023-01-19T21:48:47.390Z,6.28
2023-01-19T21:51:14.849Z,5.88
2023-01-19T21:53:41.320Z,5.68
2023-01-19T21:56:09.209Z,5.53
2023-01-19T21:58:35.745Z,5.05
2023-01-19T22:01:07.236Z,4.68
2023-01-19T22:03:33.753Z,5.30
2023-01-19T22:06:05.913Z,5.00
2023-01-19T22:08:32.737Z,5.30
2023-01-19T22:11:12.681Z,5.30
2023-01-19T22:13:39.744Z,4.97
2023-01-19T22:16:09.209Z,5.97
2023-01-19T22:18:36.512Z,4.93
2023-01-19T22:21:09.671Z,6.00
2023-01-19T22:23:36.360Z,5.93
2023-01-19T22:26:02.820Z,4.90
2023-01-19T22:28:29.125Z,5.18
2023-01-19T22:31:01.683Z,5.38
2023-01-19T22:33:28.492Z,5.10
2023-01-19T22:35:54.823Z,5.05
2023-01-19T22:38:21.130Z,5.30
2023-01-19T22:40:47.432Z,5.13
2023-01-19T22:43:13.722Z,5.35
2023-01-19T22:45:40.763Z,5.20
2023-01-19T22:48:07.186Z,5.18
2023-01-19T22:50:34.979Z,7.05
2023-01-19T22:53:01.253Z,5.82
2023-01-19T22:55:29.714Z,5.57
2023-01-19T22:57:55.994Z,5.20
2023-01-19T23:00:22.277Z,5.43
2023-01-19T23:02:48.650Z,5.53
2023-01-19T23:05:15.365Z,5.80
2023-01-19T23:07:41.867Z,6.05
2023-01-19T23:10:08.975Z,6.07
2023-01-19T23:12:35.250Z,5.30
2023-01-19T23:15:01.536Z,5.53
2023-01-19T23:17:27.889Z,5.32
2023-01-19T23:19:54.169Z,5.75
2023-01-19T23:22:20.441Z,6.25
2023-01-19T23:24:46.732Z,6.35
2023-01-19T23:27:12.997Z,6.70
2023-01-19T23:29:39.266Z,6.68
2023-01-19T23:32:05.700Z,6.80
2023-01-19T23:34:31.978Z,6.13
2023-01-19T23:36:58.248Z,6.25
2023-01-19T23:39:24.636Z,6.28
2023-01-19T23:41:50.910Z,5.95
2023-01-19T23:44:17.896Z,5.40
2023-01-19T23:46:44.471Z,5.40
2023-01-19T23:49:11.927Z,4.95
2023-01-19T23:51:39.130Z,5.38
2023-01-19T23:54:05.541Z,5.80
2023-01-19T23:56:34.696Z,4.93
2023-01-19T23:59:04.618Z,5.15
